Nellis Air Force Base
KLSV : now visible

Airfield :











YOU CAN JOIN US ON...

 
LOGIN :

Register | Disclaimer

   EN    FR    IT 

 









Legend :    VFR   Marginal VFR   IFR   Intensive IFR   Very Intensive IFR
Visi :
Ceiling :
>= 8 km
>= 3000ft
5 to 8 km
1000 to 3000 ft
1500m to 5 km
500 to 1000 ft
800 to 1500m
200 to 500 ft
< 800m
< 200 ft
Symbols :   Thunderstorms  Fog  Heavy snow  Heavy precipitations  Wind > 20 kt







- Airport Elevation : 1870 ft


KLSV - Nellis Air Force Base

CURRENT METAR :
  • 260158Z AUTO 18010KT 10SM CLR 39/03 A2980 RMK AO2 SLP064 T03910032 $

EXPIRED METARs :
  • 260058Z AUTO 19006KT 10SM CLR 40/03 A2980 RMK AO2 SLP064 T04040029 $
  • 252358Z AUTO 20006KT 10SM CLR 41/02 A2982 RMK AO2 SLPNO T04070016 10410 20351 57022 $

TAF TAF KLSV
Valid from the 25 at 23:00 until the 27 at 05:00 UTC


252300Z 2523/2705 14012G18KT 9999 FEW250 QNH2985INS
BECMG 2603/2604 VRB06KT 9999 SKC QNH2982INS
BECMG 2618/2619 13008KT 9999 SKC QNH2975INS
BECMG 2702/2703 VRB06KT 9999 SKC QNH2976INS TX41/2523Z TN26/2609Z
No reported NOTAMs for that airfield.



MET'MAP, your aeronautical weather chart ! - Copyright ORBIFLY December 2007 - Disclaimer

ORBIFLY MET'MAP TEAM :

Programming & Development : Alexandra Zaïnal
Concept & Development : Baudouin d'Aumeries
Co-Development & Prog : Marc-Olivier Méhu
Technical & hardware support : Manuel Goepfert

Contact : metmap@orbifly.com




SOURCES & CREDITS :

   NOAA       Earth
Advisory